createdAt,value
2023-02-15T00:01:59.483Z,23.77
2023-02-15T00:12:04.033Z,25.93
2023-02-15T00:22:07.182Z,25.57
2023-02-15T00:32:11.705Z,30.53
2023-02-15T00:42:14.937Z,24.37
2023-02-15T00:52:19.435Z,21.70
2023-02-15T01:02:22.617Z,18.17
2023-02-15T01:12:27.131Z,16.27
2023-02-15T01:22:30.297Z,15.67
2023-02-15T01:32:34.921Z,14.77
2023-02-15T01:42:38.420Z,16.53
2023-02-15T01:52:52.233Z,15.80
2023-02-15T02:02:58.557Z,15.17
2023-02-15T02:13:06.666Z,14.20
2023-02-15T02:23:36.009Z,19.10
2023-02-15T02:33:47.388Z,13.53
2023-02-15T02:43:56.189Z,15.00
2023-02-15T02:54:06.528Z,12.20
2023-02-15T03:04:14.793Z,12.77
2023-02-15T03:14:21.576Z,11.83
2023-02-15T03:24:30.995Z,13.33
2023-02-15T03:34:36.184Z,10.50
2023-02-15T03:44:47.752Z,12.03
2023-02-15T03:54:53.070Z,11.73
2023-02-15T04:04:56.291Z,9.47
2023-02-15T04:15:18.146Z,9.97
2023-02-15T04:25:21.626Z,11.30
2023-02-15T04:35:26.708Z,9.60
2023-02-15T04:45:30.019Z,8.40
2023-02-15T04:55:34.602Z,9.00
2023-02-15T05:05:37.826Z,8.20
2023-02-15T05:15:44.846Z,9.60
2023-02-15T05:26:08.739Z,11.53
2023-02-15T05:36:13.640Z,20.40
2023-02-15T05:46:16.893Z,12.03
2023-02-15T05:56:21.501Z,13.37
2023-02-15T06:06:24.836Z,12.10
2023-02-15T06:16:29.382Z,11.87
2023-02-15T06:26:32.505Z,14.83
2023-02-15T06:36:37.750Z,14.43
2023-02-15T06:46:40.998Z,11.03
2023-02-15T06:56:45.591Z,13.63
2023-02-15T07:06:48.821Z,14.67
2023-02-15T07:16:53.357Z,12.10
2023-02-15T07:26:56.565Z,14.43
2023-02-15T07:37:01.118Z,12.10
2023-02-15T07:47:04.408Z,9.00
2023-02-15T07:57:08.926Z,12.07
2023-02-15T08:07:12.083Z,9.03
2023-02-15T08:17:16.636Z,7.47
2023-02-15T08:27:27.608Z,7.60
2023-02-15T08:37:32.124Z,6.40
2023-02-15T08:47:35.333Z,5.53
2023-02-15T08:57:45.844Z,8.17
2023-02-15T09:07:49.030Z,6.37
2023-02-15T09:17:53.585Z,6.90
2023-02-15T09:27:56.911Z,7.57
2023-02-15T09:38:01.469Z,7.40
2023-02-15T09:48:33.030Z,8.43
2023-02-15T09:58:46.403Z,8.80
2023-02-15T10:09:04.259Z,9.77
2023-02-15T10:19:16.308Z,10.57
2023-02-15T10:29:31.561Z,9.47
2023-02-15T10:39:48.251Z,12.60
2023-02-15T10:50:04.494Z,12.47
2023-02-15T11:00:16.036Z,10.50
2023-02-15T11:10:32.249Z,12.40
2023-02-15T11:20:41.039Z,8.90
2023-02-15T11:30:47.771Z,9.53
2023-02-15T11:40:57.202Z,9.60
2023-02-15T11:51:00.975Z,10.00
2023-02-15T12:01:13.354Z,9.73
2023-02-15T12:11:21.885Z,11.57
2023-02-15T12:21:31.400Z,9.40
2023-02-15T12:31:39.027Z,12.70
2023-02-15T12:41:47.979Z,11.03
2023-02-15T12:51:53.027Z,11.63
2023-02-15T13:01:57.842Z,11.40
2023-02-15T13:12:12.805Z,13.90
2023-02-15T13:22:21.470Z,12.40
2023-02-15T13:32:30.110Z,16.63
2023-02-15T13:42:41.603Z,12.63
2023-02-15T13:52:50.492Z,12.80
2023-02-15T14:03:23.670Z,14.17
2023-02-15T14:13:53.927Z,17.50
2023-02-15T14:24:15.464Z,16.27
2023-02-15T14:34:24.851Z,12.77
2023-02-15T14:44:38.685Z,15.90
2023-02-15T14:54:59.953Z,14.53
2023-02-15T15:05:09.825Z,15.13
2023-02-15T15:15:35.919Z,12.83
2023-02-15T15:25:48.591Z,14.63
2023-02-15T15:36:08.140Z,15.50
2023-02-15T15:46:43.574Z,15.27
2023-02-15T15:56:50.621Z,17.17
2023-02-15T16:06:55.448Z,19.77
2023-02-15T16:17:00.317Z,19.77
2023-02-15T16:27:27.953Z,24.03
2023-02-15T16:37:35.710Z,22.53
2023-02-15T16:47:43.924Z,21.00
2023-02-15T16:57:47.269Z,19.67
2023-02-15T17:08:08.827Z,20.53
2023-02-15T17:18:18.811Z,19.87
2023-02-15T17:28:26.487Z,20.47
2023-02-15T17:38:29.900Z,21.07
2023-02-15T17:48:37.354Z,21.10
2023-02-15T17:58:41.774Z,25.43
2023-02-15T18:09:03.796Z,24.03
2023-02-15T18:19:08.444Z,23.60
2023-02-15T18:29:13.088Z,25.03
2023-02-15T18:39:27.131Z,24.67
2023-02-15T18:49:31.758Z,24.10
2023-02-15T18:59:35.037Z,29.53
2023-02-15T19:09:40.980Z,27.73
2023-02-15T19:19:44.343Z,27.80
2023-02-15T19:29:49.480Z,24.73
2023-02-15T19:39:52.967Z,21.87
2023-02-15T19:50:03.373Z,20.07
2023-02-15T20:00:22.169Z,18.53
2023-02-15T20:10:29.597Z,19.47
2023-02-15T20:20:39.922Z,15.77
2023-02-15T20:30:45.137Z,15.03
2023-02-15T20:41:06.044Z,16.27
2023-02-15T20:51:17.171Z,14.90
2023-02-15T21:01:20.822Z,17.13
2023-02-15T21:11:25.664Z,14.23
2023-02-15T21:21:29.219Z,14.07
2023-02-15T21:31:33.942Z,16.43
2023-02-15T21:41:54.604Z,15.23
2023-02-15T21:52:14.379Z,14.27
2023-02-15T22:02:29.276Z,13.37
2023-02-15T22:12:33.998Z,15.27
2023-02-15T22:22:37.214Z,13.90
2023-02-15T22:32:41.818Z,14.40
2023-02-15T22:42:47.977Z,15.60
2023-02-15T22:52:53.154Z,20.17
2023-02-15T23:02:56.622Z,16.73
2023-02-15T23:13:22.929Z,13.13
2023-02-15T23:23:32.553Z,12.73
2023-02-15T23:33:37.807Z,12.73
2023-02-15T23:43:43.173Z,10.93
2023-02-15T23:53:47.922Z,12.63
